Time,TemperatureF,DewpointF,PressureIn,WindDirection,WindDirectionDegrees,WindSpeedMPH,WindSpeedGustMPH,Humidity,HourlyPrecipIn,Conditions,Clouds,dailyrainin,SolarRadiationWatts/m^2,SoftwareType,DateUTC
2013-06-05 00:02:00,48.0,42.0,-100.00,ESE,116,1.0,4.0,80,0.00,,,0.00,2.000000,,2013-06-05 06:02:00,
2013-06-05 00:12:00,48.0,42.0,-100.00,ESE,116,1.0,4.0,80,0.00,,,0.00,2.000000,,2013-06-05 06:12:00,
2013-06-05 00:32:00,45.0,41.0,-100.00,SE,127,2.0,3.0,86,0.00,,,0.00,1.000000,,2013-06-05 06:32:00,
2013-06-05 00:42:00,45.0,41.0,-100.00,SE,127,2.0,3.0,86,0.00,,,0.00,1.000000,,2013-06-05 06:42:00,
2013-06-05 00:52:00,45.0,41.0,-100.00,SE,127,2.0,3.0,86,0.00,,,0.00,1.000000,,2013-06-05 06:52:00,
2013-06-05 01:02:00,45.0,41.0,-100.00,SE,127,2.0,3.0,86,0.00,,,0.00,1.000000,,2013-06-05 07:02:00,
2013-06-05 01:12:00,45.0,41.0,-100.00,SE,127,2.0,3.0,86,0.00,,,0.00,1.000000,,2013-06-05 07:12:00,
2013-06-05 01:32:00,43.0,40.0,-100.00,ENE,70,2.0,4.0,89,0.00,,,0.00,1.000000,,2013-06-05 07:32:00,
2013-06-05 01:42:00,43.0,40.0,-100.00,ENE,70,2.0,4.0,89,0.00,,,0.00,1.000000,,2013-06-05 07:42:00,
2013-06-05 01:52:00,43.0,40.0,-100.00,ENE,70,2.0,4.0,89,0.00,,,0.00,1.000000,,2013-06-05 07:52:00,
2013-06-05 02:02:00,43.0,40.0,-100.00,ENE,70,2.0,4.0,89,0.00,,,0.00,1.000000,,2013-06-05 08:02:00,
2013-06-05 02:12:00,43.0,40.0,-100.00,ENE,70,2.0,4.0,89,0.00,,,0.00,1.000000,,2013-06-05 08:12:00,
2013-06-05 02:32:00,41.0,39.0,-100.00,East,90,1.0,3.0,92,0.00,,,0.00,1.000000,,2013-06-05 08:32:00,
2013-06-05 02:42:00,41.0,39.0,-100.00,East,90,1.0,3.0,92,0.00,,,0.00,1.000000,,2013-06-05 08:42:00,
2013-06-05 02:52:00,41.0,39.0,-100.00,East,90,1.0,3.0,92,0.00,,,0.00,1.000000,,2013-06-05 08:52:00,
2013-06-05 03:02:00,41.0,39.0,-100.00,East,90,1.0,3.0,92,0.00,,,0.00,1.000000,,2013-06-05 09:02:00,
2013-06-05 03:12:00,41.0,39.0,-100.00,East,90,1.0,3.0,92,0.00,,,0.00,1.000000,,2013-06-05 09:12:00,
2013-06-05 03:33:00,40.0,38.0,-100.00,ENE,74,2.0,6.0,94,0.00,,,0.00,1.000000,,2013-06-05 09:33:00,
2013-06-05 03:43:00,40.0,38.0,-100.00,ENE,74,2.0,6.0,94,0.00,,,0.00,1.000000,,2013-06-05 09:43:00,
2013-06-05 03:53:00,40.0,38.0,-100.00,ENE,74,2.0,6.0,94,0.00,,,0.00,1.000000,,2013-06-05 09:53:00,
2013-06-05 04:02:00,40.0,38.0,-100.00,ENE,74,2.0,6.0,94,0.00,,,0.00,1.000000,,2013-06-05 10:02:00,
2013-06-05 04:12:00,40.0,38.0,-100.00,ENE,74,2.0,6.0,94,0.00,,,0.00,1.000000,,2013-06-05 10:12:00,
2013-06-05 04:33:00,38.0,37.0,-100.00,East,96,1.0,4.0,95,0.00,,,0.00,1.000000,,2013-06-05 10:33:00,
2013-06-05 04:42:00,38.0,37.0,-100.00,East,96,1.0,4.0,95,0.00,,,0.00,1.000000,,2013-06-05 10:42:00,
2013-06-05 04:52:00,38.0,37.0,-100.00,East,96,1.0,4.0,95,0.00,,,0.00,1.000000,,2013-06-05 10:52:00,
2013-06-05 05:02:00,38.0,37.0,-100.00,East,96,1.0,4.0,95,0.00,,,0.00,1.000000,,2013-06-05 11:02:00,
2013-06-05 05:11:00,38.0,37.0,-100.00,East,96,1.0,4.0,95,0.00,,,0.00,1.000000,,2013-06-05 11:11:00,
2013-06-05 05:33:00,37.0,36.0,-100.00,ENE,61,2.0,3.0,96,0.00,,,0.00,1.000000,,2013-06-05 11:33:00,
2013-06-05 05:42:00,37.0,36.0,-100.00,ENE,61,2.0,3.0,96,0.00,,,0.00,1.000000,,2013-06-05 11:42:00,
2013-06-05 05:52:00,37.0,36.0,-100.00,ENE,61,2.0,3.0,96,0.00,,,0.00,1.000000,,2013-06-05 11:52:00,
2013-06-05 06:02:00,37.0,36.0,-100.00,ENE,61,2.0,3.0,96,0.00,,,0.00,1.000000,,2013-06-05 12:02:00,
2013-06-05 06:11:00,37.0,36.0,-100.00,ENE,61,2.0,3.0,96,0.00,,,0.00,1.000000,,2013-06-05 12:11:00,
2013-06-05 06:32:00,36.0,35.0,-100.00,ENE,67,1.0,5.0,96,0.00,,,0.00,1.000000,,2013-06-05 12:32:00,
2013-06-05 06:44:00,36.0,35.0,-100.00,ENE,67,1.0,5.0,96,0.00,,,0.00,1.000000,,2013-06-05 12:44:00,
2013-06-05 06:52:00,36.0,35.0,-100.00,ENE,67,1.0,5.0,96,0.00,,,0.00,1.000000,,2013-06-05 12:52:00,
2013-06-05 07:12:00,36.0,35.0,-100.00,ENE,67,1.0,5.0,96,0.00,,,0.00,1.000000,,2013-06-05 13:12:00,
2013-06-05 07:33:00,36.0,35.0,-100.00,NE,38,2.0,4.0,96,0.00,,,0.00,4.000000,,2013-06-05 13:33:00,
2013-06-05 07:42:00,36.0,35.0,-100.00,NE,38,2.0,4.0,96,0.00,,,0.00,4.000000,,2013-06-05 13:42:00,
2013-06-05 07:52:00,36.0,35.0,-100.00,NE,38,2.0,4.0,96,0.00,,,0.00,4.000000,,2013-06-05 13:52:00,
2013-06-05 08:02:00,36.0,35.0,-100.00,NE,38,2.0,4.0,96,0.00,,,0.00,4.000000,,2013-06-05 14:02:00,
2013-06-05 08:12:00,36.0,35.0,-100.00,NE,38,2.0,4.0,96,0.00,,,0.00,4.000000,,2013-06-05 14:12:00,
2013-06-05 08:32:00,38.0,37.0,-100.00,SE,125,2.0,7.0,95,0.00,,,0.00,16.000000,,2013-06-05 14:32:00,
2013-06-05 08:42:00,38.0,37.0,-100.00,SE,125,2.0,7.0,95,0.00,,,0.00,16.000000,,2013-06-05 14:42:00,
2013-06-05 08:52:00,38.0,37.0,-100.00,SE,125,2.0,7.0,95,0.00,,,0.00,16.000000,,2013-06-05 14:52:00,
2013-06-05 09:02:00,38.0,37.0,-100.00,SE,125,2.0,7.0,95,0.00,,,0.00,16.000000,,2013-06-05 15:02:00,
2013-06-05 09:12:00,38.0,37.0,-100.00,SE,125,2.0,7.0,95,0.00,,,0.00,16.000000,,2013-06-05 15:12:00,
2013-06-05 09:33:00,45.0,38.0,-100.00,NNE,23,4.0,8.0,76,0.00,,,0.00,84.000000,,2013-06-05 15:33:00,
2013-06-05 09:43:00,45.0,38.0,-100.00,NNE,23,4.0,8.0,76,0.00,,,0.00,84.000000,,2013-06-05 15:43:00,
2013-06-05 09:53:00,45.0,38.0,-100.00,NNE,23,4.0,8.0,76,0.00,,,0.00,84.000000,,2013-06-05 15:53:00,
2013-06-05 10:03:00,45.0,38.0,-100.00,NNE,23,4.0,8.0,76,0.00,,,0.00,84.000000,,2013-06-05 16:03:00,
2013-06-05 10:12:00,45.0,38.0,-100.00,NNE,23,4.0,8.0,76,0.00,,,0.00,84.000000,,2013-06-05 16:12:00,
2013-06-05 10:32:00,53.0,39.0,-100.00,North,2,5.0,8.0,59,0.00,,,0.00,291.000000,,2013-06-05 16:32:00,
2013-06-05 10:42:00,53.0,39.0,-100.00,North,2,5.0,8.0,59,0.00,,,0.00,291.000000,,2013-06-05 16:42:00,
2013-06-05 10:54:00,53.0,39.0,-100.00,North,2,5.0,8.0,59,0.00,,,0.00,291.000000,,2013-06-05 16:54:00,
2013-06-05 11:02:00,53.0,39.0,-100.00,North,2,5.0,8.0,59,0.00,,,0.00,291.000000,,2013-06-05 17:02:00,
2013-06-05 11:12:00,53.0,39.0,-100.00,North,2,5.0,8.0,59,0.00,,,0.00,291.000000,,2013-06-05 17:12:00,
2013-06-05 11:33:00,62.0,42.0,-100.00,NW,313,4.0,7.0,48,0.00,,,0.00,568.000000,,2013-06-05 17:33:00,
2013-06-05 11:43:00,62.0,42.0,-100.00,NW,313,4.0,7.0,48,0.00,,,0.00,568.000000,,2013-06-05 17:43:00,
2013-06-05 11:52:00,62.0,42.0,-100.00,NW,313,4.0,7.0,48,0.00,,,0.00,568.000000,,2013-06-05 17:52:00,
2013-06-05 12:02:00,62.0,42.0,-100.00,NW,313,4.0,7.0,48,0.00,,,0.00,568.000000,,2013-06-05 18:02:00,
2013-06-05 12:12:00,62.0,42.0,-100.00,NW,313,4.0,7.0,48,0.00,,,0.00,568.000000,,2013-06-05 18:12:00,
2013-06-05 12:32:00,68.0,39.0,-100.00,East,88,3.0,6.0,35,0.00,,,0.00,735.000000,,2013-06-05 18:32:00,
2013-06-05 12:42:00,68.0,39.0,-100.00,East,88,3.0,6.0,35,0.00,,,0.00,735.000000,,2013-06-05 18:42:00,
2013-06-05 12:52:00,68.0,39.0,-100.00,East,88,3.0,6.0,35,0.00,,,0.00,735.000000,,2013-06-05 18:52:00,
2013-06-05 13:02:00,68.0,39.0,-100.00,East,88,3.0,6.0,35,0.00,,,0.00,735.000000,,2013-06-05 19:02:00,
2013-06-05 13:12:00,68.0,39.0,-100.00,East,88,3.0,6.0,35,0.00,,,0.00,735.000000,,2013-06-05 19:12:00,
2013-06-05 13:32:00,72.0,37.0,-100.00,NNW,348,4.0,7.0,28,0.00,,,0.00,859.000000,,2013-06-05 19:32:00,
2013-06-05 13:42:00,72.0,37.0,-100.00,NNW,348,4.0,7.0,28,0.00,,,0.00,859.000000,,2013-06-05 19:42:00,
2013-06-05 13:52:00,72.0,37.0,-100.00,NNW,348,4.0,7.0,28,0.00,,,0.00,859.000000,,2013-06-05 19:52:00,
2013-06-05 14:02:00,72.0,37.0,-100.00,NNW,348,4.0,7.0,28,0.00,,,0.00,859.000000,,2013-06-05 20:02:00,
2013-06-05 14:12:00,72.0,37.0,-100.00,NNW,348,4.0,7.0,28,0.00,,,0.00,859.000000,,2013-06-05 20:12:00,
2013-06-05 14:32:00,75.0,36.0,-100.00,SSW,212,3.0,11.0,24,0.00,,,0.00,936.000000,,2013-06-05 20:32:00,
2013-06-05 14:42:00,75.0,36.0,-100.00,SSW,212,3.0,11.0,24,0.00,,,0.00,936.000000,,2013-06-05 20:42:00,
2013-06-05 14:52:00,75.0,36.0,-100.00,SSW,212,3.0,11.0,24,0.00,,,0.00,936.000000,,2013-06-05 20:52:00,
2013-06-05 15:02:00,75.0,36.0,-100.00,SSW,212,3.0,11.0,24,0.00,,,0.00,936.000000,,2013-06-05 21:02:00,
2013-06-05 15:12:00,75.0,36.0,-100.00,SSW,212,3.0,11.0,24,0.00,,,0.00,936.000000,,2013-06-05 21:12:00,
2013-06-05 15:33:00,75.0,27.0,-100.00,SW,220,6.0,16.0,17,0.00,,,0.00,969.000000,,2013-06-05 21:33:00,
2013-06-05 15:43:00,75.0,27.0,-100.00,SW,220,6.0,16.0,17,0.00,,,0.00,969.000000,,2013-06-05 21:43:00,
2013-06-05 15:53:00,75.0,27.0,-100.00,SW,220,6.0,16.0,17,0.00,,,0.00,969.000000,,2013-06-05 21:53:00,
2013-06-05 16:02:00,75.0,27.0,-100.00,SW,220,6.0,16.0,17,0.00,,,0.00,969.000000,,2013-06-05 22:02:00,
2013-06-05 16:12:00,75.0,27.0,-100.00,SW,220,6.0,16.0,17,0.00,,,0.00,969.000000,,2013-06-05 22:12:00,
2013-06-05 16:33:00,78.0,36.0,-100.00,SSW,198,4.0,17.0,22,0.00,,,0.00,946.000000,,2013-06-05 22:33:00,
2013-06-05 16:43:00,78.0,36.0,-100.00,SSW,198,4.0,17.0,22,0.00,,,0.00,946.000000,,2013-06-05 22:43:00,
2013-06-05 16:52:00,78.0,36.0,-100.00,SSW,198,4.0,17.0,22,0.00,,,0.00,946.000000,,2013-06-05 22:52:00,
2013-06-05 17:02:00,78.0,36.0,-100.00,SSW,198,4.0,17.0,22,0.00,,,0.00,946.000000,,2013-06-05 23:02:00,
2013-06-05 17:12:00,78.0,36.0,-100.00,SSW,198,4.0,17.0,22,0.00,,,0.00,946.000000,,2013-06-05 23:12:00,
2013-06-05 17:32:00,77.0,30.0,-100.00,ENE,63,5.0,13.0,18,0.00,,,0.00,769.000000,,2013-06-05 23:32:00,
2013-06-05 17:42:00,77.0,30.0,-100.00,ENE,63,5.0,13.0,18,0.00,,,0.00,769.000000,,2013-06-05 23:42:00,
2013-06-05 17:53:00,77.0,30.0,-100.00,ENE,63,5.0,13.0,18,0.00,,,0.00,769.000000,,2013-06-05 23:53:00,
2013-06-05 18:02:00,77.0,30.0,-100.00,ENE,63,5.0,13.0,18,0.00,,,0.00,769.000000,,2013-06-06 00:02:00,
2013-06-05 18:12:00,77.0,30.0,-100.00,ENE,63,5.0,13.0,18,0.00,,,0.00,769.000000,,2013-06-06 00:12:00,
2013-06-05 18:32:00,79.0,34.0,-100.00,NE,50,5.0,11.0,20,0.00,,,0.00,794.000000,,2013-06-06 00:32:00,
2013-06-05 18:43:00,79.0,34.0,-100.00,NE,50,5.0,11.0,20,0.00,,,0.00,794.000000,,2013-06-06 00:43:00,
2013-06-05 18:52:00,79.0,34.0,-100.00,NE,50,5.0,11.0,20,0.00,,,0.00,794.000000,,2013-06-06 00:52:00,
2013-06-05 19:02:00,79.0,34.0,-100.00,NE,50,5.0,11.0,20,0.00,,,0.00,794.000000,,2013-06-06 01:02:00,
2013-06-05 19:12:00,79.0,34.0,-100.00,NE,50,5.0,11.0,20,0.00,,,0.00,794.000000,,2013-06-06 01:12:00,
2013-06-05 19:32:00,78.0,35.0,-100.00,ESE,120,4.0,12.0,21,0.00,,,0.00,583.000000,,2013-06-06 01:32:00,
2013-06-05 19:42:00,78.0,35.0,-100.00,ESE,120,4.0,12.0,21,0.00,,,0.00,583.000000,,2013-06-06 01:42:00,
2013-06-05 19:53:00,78.0,35.0,-100.00,ESE,120,4.0,12.0,21,0.00,,,0.00,583.000000,,2013-06-06 01:53:00,
2013-06-05 20:02:00,78.0,35.0,-100.00,ESE,120,4.0,12.0,21,0.00,,,0.00,583.000000,,2013-06-06 02:02:00,
2013-06-05 20:12:00,78.0,35.0,-100.00,ESE,120,4.0,12.0,21,0.00,,,0.00,583.000000,,2013-06-06 02:12:00,
2013-06-05 20:32:00,76.0,33.0,-100.00,South,178,5.0,14.0,21,0.00,,,0.00,407.000000,,2013-06-06 02:32:00,
2013-06-05 20:42:00,76.0,33.0,-100.00,South,178,5.0,14.0,21,0.00,,,0.00,407.000000,,2013-06-06 02:42:00,
2013-06-05 20:52:00,76.0,33.0,-100.00,South,178,5.0,14.0,21,0.00,,,0.00,407.000000,,2013-06-06 02:52:00,
2013-06-05 21:02:00,76.0,33.0,-100.00,South,178,5.0,14.0,21,0.00,,,0.00,407.000000,,2013-06-06 03:02:00,
2013-06-05 21:12:00,76.0,33.0,-100.00,South,178,5.0,14.0,21,0.00,,,0.00,407.000000,,2013-06-06 03:12:00,
2013-06-05 21:33:00,65.0,39.0,-100.00,SE,139,4.0,9.0,38,0.00,,,0.00,103.000000,,2013-06-06 03:33:00,
2013-06-05 21:43:00,65.0,39.0,-100.00,SE,139,4.0,9.0,38,0.00,,,0.00,103.000000,,2013-06-06 03:43:00,
2013-06-05 21:52:00,65.0,39.0,-100.00,SE,139,4.0,9.0,38,0.00,,,0.00,103.000000,,2013-06-06 03:52:00,
2013-06-05 22:02:00,65.0,39.0,-100.00,SE,139,4.0,9.0,38,0.00,,,0.00,103.000000,,2013-06-06 04:02:00,
2013-06-05 22:13:00,65.0,39.0,-100.00,SE,139,4.0,9.0,38,0.00,,,0.00,103.000000,,2013-06-06 04:13:00,
2013-06-05 22:33:00,60.0,41.0,-100.00,ESE,120,1.0,5.0,50,0.00,,,-99.99,19.000000,,2013-06-06 04:33:00,
2013-06-05 22:42:00,60.0,41.0,-100.00,ESE,120,1.0,5.0,50,0.00,,,-99.99,19.000000,,2013-06-06 04:42:00,
2013-06-05 22:53:00,60.0,41.0,-100.00,ESE,120,1.0,5.0,50,0.00,,,-99.99,19.000000,,2013-06-06 04:53:00,
2013-06-05 23:02:00,60.0,41.0,-100.00,ESE,120,1.0,5.0,50,0.00,,,-99.99,19.000000,,2013-06-06 05:02:00,
2013-06-05 23:12:00,60.0,41.0,-100.00,ESE,120,1.0,5.0,50,0.00,,,-99.99,19.000000,,2013-06-06 05:12:00,
2013-06-05 23:32:00,56.0,39.0,-100.00,East,99,1.0,4.0,52,0.00,,,0.00,2.000000,,2013-06-06 05:32:00,
2013-06-05 23:42:00,56.0,39.0,-100.00,East,99,1.0,4.0,52,0.00,,,0.00,2.000000,,2013-06-06 05:42:00,
2013-06-05 23:52:00,56.0,39.0,-100.00,East,99,1.0,4.0,52,0.00,,,0.00,2.000000,,2013-06-06 05:52:00,